Time;durP1;ratioP1;P1;durP2;ratioP2;P2;SDS_P1;SDS_P2;PMS_P1;PMS_P2;Temp;Humidity;BMP_temperature;BMP_pressure;BME280_temperature;BME280_humidity;BME280_pressure;Samples;Min_cycle;Max_cycle;Signal;HPM_P1;HPM_P2
2023/03/19 00:02:13;;;;;;;24.48;21.20;;;10.10;99.90;;;;;;4991883;28;20053;-75
2023/03/19 00:04:38;;;;;;;26.30;22.63;;;10.10;99.90;;;;;;4990447;28;20050;-76
2023/03/19 00:07:04;;;;;;;27.30;22.17;;;10.00;99.90;;;;;;4990798;28;20126;-75
2023/03/19 00:09:30;;;;;;;26.00;22.55;;;10.00;99.90;;;;;;4989936;28;20109;-76
2023/03/19 00:11:56;;;;;;;31.88;25.80;;;10.00;99.90;;;;;;4991604;28;20076;-76
2023/03/19 00:14:22;;;;;;;27.10;23.98;;;10.00;99.90;;;;;;4991062;28;20050;-76
2023/03/19 00:16:47;;;;;;;33.42;27.48;;;10.00;99.90;;;;;;4972759;28;20522;-75
2023/03/19 00:19:14;;;;;;;35.00;28.45;;;10.00;99.90;;;;;;4973843;28;20138;-76
2023/03/19 00:21:40;;;;;;;32.63;26.45;;;10.00;99.90;;;;;;4991740;28;20038;-75
2023/03/19 00:24:06;;;;;;;36.42;28.88;;;10.10;99.90;;;;;;4991193;28;20081;-75
2023/03/19 00:26:34;;;;;;;30.88;26.60;;;10.10;99.90;;;;;;4991316;28;20463;-75
2023/03/19 00:29:00;;;;;;;36.67;27.90;;;10.00;99.90;;;;;;4972766;28;20045;-75
2023/03/19 00:31:27;;;;;;;30.95;25.73;;;10.00;99.90;;;;;;4973967;28;20058;-75
2023/03/19 00:33:53;;;;;;;33.38;26.42;;;10.00;99.90;;;;;;4989950;28;20039;-76
2023/03/19 00:36:20;;;;;;;33.55;27.25;;;9.90;99.90;;;;;;4990333;28;20408;-75
2023/03/19 00:38:46;;;;;;;32.53;25.98;;;9.90;99.90;;;;;;4991295;28;20492;-75
2023/03/19 00:41:12;;;;;;;37.60;28.08;;;9.80;99.90;;;;;;4995251;28;20062;-75
2023/03/19 00:43:39;;;;;;;32.30;26.20;;;9.80;99.90;;;;;;4989419;28;20054;-76
2023/03/19 00:46:06;;;;;;;33.88;26.80;;;9.80;99.90;;;;;;4972988;28;20054;-75
2023/03/19 00:48:32;;;;;;;30.90;27.33;;;9.90;99.90;;;;;;4973829;28;20161;-75
2023/03/19 00:51:06;;;;;;;37.67;28.65;;;9.90;99.90;;;;;;4987595;28;20042;-76
2023/03/19 00:53:35;;;;;;;37.63;29.20;;;9.90;99.90;;;;;;4970483;28;20050;-76
2023/03/19 00:56:01;;;;;;;32.58;28.08;;;9.90;99.90;;;;;;4988742;28;20077;-75
2023/03/19 00:58:26;;;;;;;36.83;30.02;;;10.00;99.90;;;;;;4989785;28;20086;-75
2023/03/19 01:00:53;;;;;;;39.25;31.83;;;9.90;99.90;;;;;;4970454;28;20473;-75
2023/03/19 01:03:19;;;;;;;35.88;28.73;;;9.90;99.90;;;;;;4990030;28;20496;-75
2023/03/19 01:05:48;;;;;;;35.80;28.75;;;10.00;99.90;;;;;;4988123;28;20062;-75
2023/03/19 01:08:14;;;;;;;;;;;10.00;99.90;;;;;;4985249;28;20054;-76
2023/03/19 01:10:40;;;;;;;30.95;26.23;;;10.00;99.90;;;;;;4971883;28;19921;-75
2023/03/19 01:13:05;;;;;;;29.35;25.73;;;10.00;99.90;;;;;;4989470;28;20137;-75
2023/03/19 01:15:35;;;;;;;28.73;23.17;;;10.00;99.90;;;;;;4972239;28;20053;-75
2023/03/19 01:18:00;;;;;;;35.38;25.65;;;10.00;99.90;;;;;;4981046;28;20090;-75
2023/03/19 01:20:26;;;;;;;27.33;23.13;;;10.10;99.90;;;;;;4989710;28;20570;-76
2023/03/19 01:22:52;;;;;;;29.38;23.25;;;10.20;99.90;;;;;;4954616;28;20058;-75
2023/03/19 01:25:18;;;;;;;26.67;22.17;;;10.10;99.90;;;;;;4988696;28;20065;-75
2023/03/19 01:27:43;;;;;;;23.33;19.67;;;10.20;99.90;;;;;;4990356;28;20057;-76
2023/03/19 01:30:09;;;;;;;26.60;21.80;;;10.20;99.90;;;;;;4988618;28;20416;-76
2023/03/19 01:32:36;;;;;;;25.27;20.30;;;10.20;99.90;;;;;;4981126;28;20070;-76
2023/03/19 01:35:02;;;;;;;27.17;20.85;;;10.30;99.90;;;;;;4984453;28;20189;-76
2023/03/19 01:37:28;;;;;;;26.48;20.33;;;10.20;99.90;;;;;;4989984;28;20878;-76
2023/03/19 01:39:54;;;;;;;25.48;20.20;;;10.30;99.90;;;;;;4972929;28;20050;-76
2023/03/19 01:42:20;;;;;;;24.77;20.15;;;10.30;99.90;;;;;;4978946;28;20543;-76
2023/03/19 01:44:46;;;;;;;26.30;20.33;;;10.30;99.90;;;;;;4989532;28;20058;-75
2023/03/19 01:47:29;;;;;;;21.15;18.35;;;10.30;99.90;;;;;;4971915;28;20121;-75
2023/03/19 01:49:56;;;;;;;22.83;19.45;;;10.30;99.90;;;;;;4987366;28;20054;-76
2023/03/19 01:52:26;;;;;;;22.10;17.50;;;10.40;99.90;;;;;;4989418;28;20157;-76
2023/03/19 01:54:52;;;;;;;24.00;17.90;;;10.30;99.90;;;;;;4971638;28;20054;-75
2023/03/19 01:57:19;;;;;;;22.33;17.52;;;10.40;99.90;;;;;;4975518;28;20046;-76
2023/03/19 01:59:52;;;;;;;19.40;17.25;;;10.40;99.90;;;;;;4985230;28;20042;-76
2023/03/19 02:02:29;;;;;;;20.20;17.98;;;10.40;99.90;;;;;;4972166;28;20054;-76
2023/03/19 02:05:11;;;;;;;20.98;18.83;;;10.40;99.90;;;;;;4971703;28;20101;-76
2023/03/19 02:07:40;;;;;;;23.83;20.00;;;10.30;99.90;;;;;;4970425;28;20042;-76
2023/03/19 02:10:10;;;;;;;24.92;21.20;;;10.30;99.90;;;;;;4971334;28;20487;-75
2023/03/19 02:12:35;;;;;;;30.48;20.65;;;10.30;99.90;;;;;;4971127;28;20093;-75
2023/03/19 02:15:01;;;;;;;24.70;20.85;;;10.30;99.90;;;;;;4971578;28;20054;-75
2023/03/19 02:17:28;;;;;;;26.55;21.50;;;10.30;99.90;;;;;;4986593;28;20054;-75
2023/03/19 02:19:53;;;;;;;24.02;21.15;;;10.30;99.90;;;;;;4988477;28;20057;-76
2023/03/19 02:22:24;;;;;;;27.55;23.02;;;10.30;99.90;;;;;;4987466;28;20054;-76
2023/03/19 02:25:01;;;;;;;28.45;22.35;;;10.30;99.90;;;;;;4977539;28;20116;-76
2023/03/19 02:27:27;;;;;;;25.30;20.27;;;10.30;99.90;;;;;;4971304;28;20121;-76
2023/03/19 02:29:53;;;;;;;27.80;19.38;;;10.20;99.90;;;;;;4988671;28;20133;-76
2023/03/19 02:32:18;;;;;;;26.73;20.23;;;10.20;99.90;;;;;;4971770;28;20500;-76
2023/03/19 02:34:44;;;;;;;23.08;20.38;;;10.20;99.90;;;;;;4969100;28;20047;-77
2023/03/19 02:37:16;;;;;;;26.83;19.95;;;10.20;99.90;;;;;;4972950;28;20050;-76
2023/03/19 02:39:50;;;;;;;24.17;20.15;;;10.20;99.90;;;;;;4972797;28;20057;-76
2023/03/19 02:42:18;;;;;;;23.80;21.25;;;10.20;99.90;;;;;;4988911;28;20084;-76
2023/03/19 02:44:45;;;;;;;23.80;19.38;;;10.20;99.90;;;;;;4988742;28;20058;-76
2023/03/19 02:47:11;;;;;;;22.35;20.05;;;10.20;99.90;;;;;;4988374;28;20049;-76
2023/03/19 02:49:36;;;;;;;26.45;18.77;;;10.20;99.90;;;;;;4987305;28;20053;-75
2023/03/19 02:52:02;;;;;;;21.02;18.75;;;10.20;99.90;;;;;;4989078;28;20042;-76
2023/03/19 02:54:28;;;;;;;23.25;20.77;;;10.10;99.90;;;;;;4987936;28;20038;-76
2023/03/19 02:56:54;;;;;;;20.40;17.92;;;10.10;99.90;;;;;;4979375;28;20112;-75
2023/03/19 02:59:20;;;;;;;22.25;18.67;;;10.10;99.90;;;;;;4987741;28;20108;-76
2023/03/19 03:01:46;;;;;;;21.13;18.77;;;10.20;99.90;;;;;;4980367;28;20078;-75
2023/03/19 03:04:15;;;;;;;21.25;18.48;;;10.10;99.90;;;;;;4988456;28;20061;-76
2023/03/19 03:06:40;;;;;;;19.75;17.75;;;10.10;99.90;;;;;;4987089;28;20050;-76
2023/03/19 03:09:06;;;;;;;21.70;19.45;;;10.10;99.90;;;;;;4975551;28;20061;-76
2023/03/19 03:11:32;;;;;;;24.48;17.30;;;10.10;99.90;;;;;;4985145;28;20046;-76
2023/03/19 03:13:57;;;;;;;19.52;17.42;;;10.10;99.90;;;;;;4987983;28;20097;-76
2023/03/19 03:16:24;;;;;;;20.10;17.92;;;10.10;99.90;;;;;;4988078;28;20396;-76
2023/03/19 03:18:50;;;;;;;18.42;16.08;;;10.10;99.90;;;;;;4980872;28;20047;-76
2023/03/19 03:21:18;;;;;;;21.75;17.65;;;10.10;99.90;;;;;;4971633;28;20047;-76
2023/03/19 03:23:44;;;;;;;19.95;16.63;;;10.10;99.90;;;;;;4968971;28;20065;-75
2023/03/19 03:26:11;;;;;;;19.08;15.73;;;10.10;99.90;;;;;;4966997;28;20057;-76
2023/03/19 03:28:36;;;;;;;18.35;15.75;;;10.10;99.90;;;;;;4973935;28;20049;-75
2023/03/19 03:31:02;;;;;;;22.42;16.73;;;10.00;99.90;;;;;;4982890;28;20050;-75
2023/03/19 03:33:28;;;;;;;19.10;16.27;;;10.00;99.90;;;;;;4983951;28;20448;-75
2023/03/19 03:35:54;;;;;;;17.58;15.35;;;10.00;99.90;;;;;;4996111;28;20046;-76
2023/03/19 03:38:20;;;;;;;16.33;14.68;;;9.90;99.90;;;;;;4979485;28;20046;-75
2023/03/19 03:40:51;;;;;;;16.05;14.27;;;9.90;99.90;;;;;;4982446;28;20069;-75
2023/03/19 03:43:18;;;;;;;18.08;14.73;;;9.90;99.90;;;;;;4991592;28;20507;-76
2023/03/19 03:45:44;;;;;;;16.27;13.87;;;9.90;99.90;;;;;;4990276;28;20392;-76
2023/03/19 03:48:10;;;;;;;19.80;14.55;;;9.90;99.90;;;;;;4982671;28;20377;-76
2023/03/19 03:50:36;;;;;;;15.00;13.50;;;9.80;99.90;;;;;;4974861;28;20035;-76
2023/03/19 03:53:01;;;;;;;15.70;14.10;;;9.90;99.90;;;;;;4991663;28;20038;-76
2023/03/19 03:55:27;;;;;;;16.45;13.68;;;9.80;99.90;;;;;;4991163;28;20040;-76
2023/03/19 03:57:53;;;;;;;23.83;14.75;;;9.80;99.90;;;;;;4993975;28;20483;-76
2023/03/19 04:00:19;;;;;;;13.40;12.00;;;9.80;99.90;;;;;;4991354;28;20054;-75
2023/03/19 04:02:45;;;;;;;15.60;13.27;;;9.80;99.90;;;;;;4992218;28;20054;-76
2023/03/19 04:05:10;;;;;;;14.32;12.75;;;9.80;99.90;;;;;;4991270;28;20702;-75
2023/03/19 04:07:37;;;;;;;16.27;13.90;;;9.70;99.90;;;;;;4964597;28;20050;-76
2023/03/19 04:10:03;;;;;;;16.45;14.00;;;9.80;99.90;;;;;;4972735;28;20101;-76
2023/03/19 04:12:29;;;;;;;14.63;13.00;;;9.70;99.90;;;;;;4973187;28;20050;-76
2023/03/19 04:14:54;;;;;;;13.98;12.60;;;9.70;99.90;;;;;;4984190;28;20042;-76
2023/03/19 04:17:20;;;;;;;16.80;14.45;;;9.70;99.90;;;;;;4991449;28;20047;-76
2023/03/19 04:19:45;;;;;;;15.85;13.35;;;9.70;99.90;;;;;;4990629;28;20050;-76
2023/03/19 04:22:11;;;;;;;15.80;13.05;;;9.70;99.90;;;;;;4991336;28;20065;-76
2023/03/19 04:24:38;;;;;;;15.48;13.88;;;9.70;99.90;;;;;;4972976;28;20051;-76
2023/03/19 04:27:03;;;;;;;16.52;13.82;;;9.70;99.90;;;;;;4971082;28;20063;-75
2023/03/19 04:29:29;;;;;;;14.48;12.43;;;9.70;99.90;;;;;;4971270;28;20042;-76
2023/03/19 04:31:55;;;;;;;15.40;13.50;;;9.70;99.90;;;;;;4991283;28;20046;-76
2023/03/19 04:34:21;;;;;;;15.60;13.75;;;9.70;99.90;;;;;;4989185;28;20054;-76
2023/03/19 04:36:48;;;;;;;14.25;12.68;;;9.80;99.90;;;;;;4987578;28;20057;-76
2023/03/19 04:39:14;;;;;;;16.85;12.93;;;9.70;99.90;;;;;;4989965;28;20061;-76
2023/03/19 04:41:39;;;;;;;15.68;13.20;;;9.70;99.90;;;;;;4994031;28;20043;-76
2023/03/19 04:44:06;;;;;;;13.80;12.35;;;9.60;99.90;;;;;;4980490;28;20495;-76
2023/03/19 04:46:32;;;;;;;14.23;11.90;;;9.60;99.90;;;;;;4987958;28;20050;-76
2023/03/19 04:48:58;;;;;;;15.75;12.18;;;9.60;99.90;;;;;;4965928;28;20093;-76
2023/03/19 04:51:24;;;;;;;15.05;12.82;;;9.70;99.90;;;;;;4971966;28;20057;-76
2023/03/19 04:53:49;;;;;;;13.77;12.18;;;9.70;99.90;;;;;;4969372;28;20038;-76
2023/03/19 04:56:16;;;;;;;17.85;11.80;;;9.70;99.90;;;;;;4973966;28;20046;-76
2023/03/19 04:58:42;;;;;;;14.93;12.35;;;9.60;99.90;;;;;;4990868;28;20054;-76
2023/03/19 05:01:08;;;;;;;14.57;11.13;;;9.80;99.90;;;;;;4989474;28;20052;-76
2023/03/19 05:03:35;;;;;;;14.10;11.98;;;9.80;99.90;;;;;;4988906;28;20050;-76
2023/03/19 05:06:00;;;;;;;18.00;12.05;;;9.80;99.90;;;;;;4989318;28;20050;-76
2023/03/19 05:08:26;;;;;;;12.35;10.60;;;9.80;99.90;;;;;;4990655;28;20042;-76
2023/03/19 05:10:53;;;;;;;15.27;11.07;;;9.80;99.90;;;;;;4972376;28;20062;-76
2023/03/19 05:13:18;;;;;;;14.57;12.05;;;9.80;99.90;;;;;;4989187;28;20046;-76
2023/03/19 05:15:45;;;;;;;15.63;11.32;;;9.80;99.90;;;;;;4990299;28;20415;-76
2023/03/19 05:18:11;;;;;;;14.65;11.80;;;9.70;99.90;;;;;;4985085;28;20078;-76
2023/03/19 05:20:38;;;;;;;12.23;10.98;;;9.70;99.90;;;;;;4974163;28;20046;-76
2023/03/19 05:23:04;;;;;;;11.85;9.73;;;9.70;99.90;;;;;;4970697;28;20082;-76
2023/03/19 05:25:29;;;;;;;12.23;11.07;;;9.70;99.90;;;;;;4973471;28;20133;-76
2023/03/19 05:27:55;;;;;;;10.80;9.70;;;9.70;99.90;;;;;;4989023;28;20460;-76
2023/03/19 05:30:22;;;;;;;10.27;9.27;;;9.60;99.90;;;;;;4972167;28;20133;-75
2023/03/19 05:32:49;;;;;;;10.63;9.52;;;9.60;99.90;;;;;;4968217;28;20846;-75
2023/03/19 05:35:14;;;;;;;12.25;10.25;;;9.60;99.90;;;;;;4989803;28;20100;-76
2023/03/19 05:37:40;;;;;;;11.98;10.50;;;9.60;99.90;;;;;;4956207;28;20054;-75
2023/03/19 05:40:07;;;;;;;11.25;9.10;;;9.50;99.90;;;;;;4988947;28;20515;-75
2023/03/19 05:42:32;;;;;;;10.63;9.57;;;9.50;99.90;;;;;;4989802;28;20578;-76
2023/03/19 05:44:58;;;;;;;9.80;8.80;;;9.50;99.90;;;;;;4988404;28;20046;-76
2023/03/19 05:47:24;;;;;;;12.73;10.27;;;9.50;99.90;;;;;;4988662;28;20058;-76
2023/03/19 05:49:49;;;;;;;10.65;9.65;;;9.40;99.90;;;;;;4970558;28;20034;-76
2023/03/19 05:52:15;;;;;;;12.00;8.80;;;9.40;99.90;;;;;;4987491;28;20084;-76
2023/03/19 05:54:41;;;;;;;11.07;9.73;;;9.30;99.90;;;;;;4970956;28;20128;-76
2023/03/19 05:57:07;;;;;;;10.07;9.07;;;9.20;99.90;;;;;;4989522;28;20582;-76
2023/03/19 05:59:34;;;;;;;9.20;8.30;;;9.20;99.90;;;;;;4989091;28;20117;-75
2023/03/19 06:02:00;;;;;;;13.87;9.60;;;9.20;99.90;;;;;;4969863;28;20054;-76
2023/03/19 06:04:26;;;;;;;10.25;9.18;;;9.20;99.90;;;;;;4968762;28;20057;-75
2023/03/19 06:06:52;;;;;;;11.60;9.45;;;9.20;99.90;;;;;;4952267;28;20038;-76
2023/03/19 06:09:17;;;;;;;10.80;9.80;;;9.20;99.90;;;;;;4987521;28;20054;-76
2023/03/19 06:11:43;;;;;;;10.65;8.77;;;9.10;99.90;;;;;;4983902;28;20076;-76
2023/03/19 06:14:09;;;;;;;8.57;7.78;;;9.20;99.90;;;;;;4988213;28;20057;-76
2023/03/19 06:16:36;;;;;;;10.75;8.68;;;9.00;99.90;;;;;;4970899;28;20093;-76
2023/03/19 06:19:02;;;;;;;10.70;9.70;;;9.10;99.90;;;;;;4975716;28;20069;-76
2023/03/19 06:21:29;;;;;;;11.95;9.45;;;9.00;99.90;;;;;;4988018;28;20046;-76
2023/03/19 06:23:58;;;;;;;11.80;8.52;;;8.90;99.90;;;;;;4986538;28;20054;-76
2023/03/19 06:26:24;;;;;;;9.82;8.82;;;9.00;99.90;;;;;;4977877;28;20053;-76
2023/03/19 06:28:50;;;;;;;12.25;9.68;;;9.00;99.90;;;;;;4985574;28;20050;-76
2023/03/19 06:31:15;;;;;;;9.93;8.52;;;9.00;99.90;;;;;;4970048;28;20050;-75
2023/03/19 06:33:41;;;;;;;11.45;10.27;;;9.00;99.90;;;;;;4988740;28;20042;-75
2023/03/19 06:36:07;;;;;;;16.52;10.70;;;9.00;99.90;;;;;;4987253;28;20046;-76
2023/03/19 06:38:34;;;;;;;10.80;9.70;;;9.00;99.90;;;;;;4970879;28;20503;-76
2023/03/19 06:41:00;;;;;;;10.50;8.88;;;9.10;99.90;;;;;;4985776;28;20511;-76
2023/03/19 06:43:26;;;;;;;11.95;10.73;;;9.10;99.90;;;;;;4963573;28;20164;-76
2023/03/19 06:45:52;;;;;;;12.90;10.60;;;9.00;99.90;;;;;;4974654;28;20046;-76
2023/03/19 06:48:17;;;;;;;13.23;11.38;;;9.00;99.90;;;;;;4981039;28;20765;-76
2023/03/19 06:50:45;;;;;;;14.40;11.13;;;9.10;99.90;;;;;;4969336;28;20054;-76
2023/03/19 06:53:12;;;;;;;15.55;12.35;;;9.10;99.90;;;;;;4971027;28;20822;-76
2023/03/19 06:55:38;;;;;;;13.32;11.93;;;9.10;99.90;;;;;;4992836;28;20038;-76
2023/03/19 06:58:05;;;;;;;13.63;12.07;;;9.10;99.90;;;;;;4985720;28;20046;-76
2023/03/19 07:00:31;;;;;;;16.45;12.57;;;9.10;99.90;;;;;;4968555;28;20038;-75
2023/03/19 07:02:57;;;;;;;13.27;11.57;;;9.10;99.90;;;;;;4985379;28;20108;-76
2023/03/19 07:05:23;;;;;;;12.45;11.15;;;9.10;99.90;;;;;;4968385;28;20456;-76
2023/03/19 07:07:49;;;;;;;12.25;11.05;;;9.00;99.90;;;;;;4987910;28;20367;-75
2023/03/19 07:10:20;;;;;;;13.07;11.50;;;9.10;99.90;;;;;;4969985;28;20048;-76
2023/03/19 07:12:46;;;;;;;14.18;11.25;;;9.10;99.90;;;;;;4963905;28;20046;-76
2023/03/19 07:15:13;;;;;;;12.75;11.40;;;9.10;99.90;;;;;;4970603;28;20056;-76
2023/03/19 07:17:38;;;;;;;15.13;11.95;;;9.20;99.90;;;;;;4973169;28;20054;-75
2023/03/19 07:20:05;;;;;;;13.00;11.52;;;9.00;99.90;;;;;;4969017;28;20050;-75
2023/03/19 07:22:31;;;;;;;13.13;10.32;;;9.10;99.90;;;;;;4969493;28;20062;-76
2023/03/19 07:24:56;;;;;;;12.68;10.05;;;9.10;99.90;;;;;;4965012;28;20086;-75
2023/03/19 07:27:22;;;;;;;12.10;10.90;;;9.10;99.90;;;;;;4987655;28;20077;-75
2023/03/19 07:29:48;;;;;;;13.43;12.02;;;9.00;99.90;;;;;;4988383;28;20097;-76
2023/03/19 07:32:13;;;;;;;15.63;13.80;;;9.20;99.90;;;;;;4986227;28;20101;-75
2023/03/19 07:34:39;;;;;;;15.25;11.90;;;9.20;99.90;;;;;;4981191;28;20055;-75
2023/03/19 07:37:05;;;;;;;17.20;12.35;;;9.30;99.90;;;;;;4986505;28;20050;-75
2023/03/19 07:39:31;;;;;;;19.38;12.32;;;9.40;99.90;;;;;;4987524;28;20062;-75
2023/03/19 07:41:57;;;;;;;14.85;13.15;;;9.50;99.90;;;;;;4985927;28;20491;-76
2023/03/19 07:44:22;;;;;;;16.95;13.43;;;9.70;99.90;;;;;;4977674;28;20411;-76
2023/03/19 07:46:51;;;;;;;17.10;14.98;;;10.00;99.90;;;;;;4978772;28;20133;-75
2023/03/19 07:49:16;;;;;;;15.50;13.65;;;10.20;99.90;;;;;;4967897;28;20403;-76
2023/03/19 07:51:42;;;;;;;18.95;14.52;;;10.30;99.90;;;;;;4973567;28;20042;-75
2023/03/19 07:54:08;;;;;;;15.57;13.82;;;10.50;99.90;;;;;;4969207;28;20176;-75
2023/03/19 07:56:34;;;;;;;14.98;12.90;;;10.40;99.90;;;;;;4985270;28;20478;-75
2023/03/19 07:58:59;;;;;;;14.93;13.32;;;10.50;99.90;;;;;;4982506;28;20050;-76
2023/03/19 08:01:27;;;;;;;16.75;13.70;;;10.50;99.90;;;;;;4983219;28;20870;-76
2023/03/19 08:03:52;;;;;;;16.70;14.90;;;10.60;99.90;;;;;;4978177;28;20046;-76
2023/03/19 08:06:20;;;;;;;14.90;12.55;;;10.60;99.90;;;;;;4986684;28;20551;-76
2023/03/19 08:08:46;;;;;;;15.70;13.77;;;10.60;99.90;;;;;;4967518;28;20058;-76
2023/03/19 08:11:12;;;;;;;17.00;13.57;;;10.60;99.90;;;;;;4985561;28;20407;-76
2023/03/19 08:13:37;;;;;;;15.95;13.65;;;10.60;99.90;;;;;;4969931;28;20482;-76
2023/03/19 08:16:04;;;;;;;15.95;13.45;;;10.70;99.90;;;;;;4987664;28;20050;-76
2023/03/19 08:18:29;;;;;;;16.13;14.40;;;10.80;99.90;;;;;;4986627;28;20057;-76
2023/03/19 08:20:55;;;;;;;18.25;16.10;;;10.90;99.90;;;;;;4990506;28;20053;-76
2023/03/19 08:23:21;;;;;;;16.20;14.48;;;10.90;99.90;;;;;;4990771;28;20547;-75
2023/03/19 08:25:50;;;;;;;18.80;15.73;;;11.00;99.90;;;;;;4990261;28;20050;-76
2023/03/19 08:28:16;;;;;;;18.05;16.02;;;11.00;99.90;;;;;;4971261;28;20046;-76
2023/03/19 08:30:42;;;;;;;20.40;16.83;;;11.00;99.90;;;;;;4973789;28;20053;-76
2023/03/19 08:33:07;;;;;;;46.33;17.23;;;11.00;99.90;;;;;;4973199;28;20035;-76
2023/03/19 08:35:33;;;;;;;22.13;16.92;;;11.00;99.90;;;;;;4972182;28;20503;-76
2023/03/19 08:38:00;;;;;;;22.05;17.55;;;11.00;99.90;;;;;;4991514;28;20057;-76
2023/03/19 08:40:25;;;;;;;19.95;17.08;;;11.10;99.90;;;;;;4973450;28;20042;-75
2023/03/19 08:42:53;;;;;;;19.25;16.00;;;11.20;99.90;;;;;;4969662;28;20601;-76
2023/03/19 08:45:18;;;;;;;22.63;19.35;;;11.20;99.90;;;;;;4966812;28;20100;-76
2023/03/19 08:47:44;;;;;;;25.90;18.45;;;11.30;99.90;;;;;;4986851;28;20042;-76
2023/03/19 08:50:11;;;;;;;27.80;19.88;;;11.40;99.90;;;;;;4986823;28;20085;-76
2023/03/19 08:52:36;;;;;;;30.02;20.05;;;11.50;99.90;;;;;;4990309;28;20046;-76
2023/03/19 08:55:03;;;;;;;23.80;18.02;;;11.60;99.90;;;;;;4989221;28;20046;-76
2023/03/19 08:57:31;;;;;;;19.85;17.60;;;11.70;99.90;;;;;;4972905;28;20046;-76
2023/03/19 08:59:56;;;;;;;25.55;18.77;;;11.80;99.90;;;;;;4994915;28;20057;-76
2023/03/19 09:02:23;;;;;;;22.48;18.92;;;11.80;99.90;;;;;;4988945;28;20046;-75
2023/03/19 09:04:48;;;;;;;24.20;20.08;;;11.80;99.90;;;;;;4972716;28;20105;-76
2023/03/19 09:07:15;;;;;;;25.77;19.75;;;11.80;99.90;;;;;;4992355;28;20089;-75
2023/03/19 09:09:42;;;;;;;23.67;19.20;;;11.90;99.90;;;;;;4980488;28;20061;-76
2023/03/19 09:12:10;;;;;;;22.42;18.40;;;11.90;99.90;;;;;;4973468;28;20109;-75
2023/03/19 09:14:36;;;;;;;28.90;19.50;;;11.90;99.90;;;;;;4974111;28;20062;-75
2023/03/19 09:17:02;;;;;;;24.25;19.42;;;12.00;99.90;;;;;;4990668;28;20096;-75
2023/03/19 09:19:28;;;;;;;23.70;19.60;;;12.10;99.90;;;;;;4989878;28;20634;-75
2023/03/19 09:21:54;;;;;;;22.42;18.00;;;12.20;99.90;;;;;;4990194;28;20038;-75
2023/03/19 09:24:20;;;;;;;19.75;16.55;;;12.20;99.90;;;;;;4988506;28;20129;-75
2023/03/19 09:26:45;;;;;;;18.63;16.05;;;12.30;99.90;;;;;;4990225;28;20058;-75
2023/03/19 09:29:12;;;;;;;23.33;18.58;;;12.30;99.90;;;;;;4991924;28;20058;-75
2023/03/19 09:31:38;;;;;;;20.48;17.40;;;12.30;99.90;;;;;;4989685;28;20038;-75
2023/03/19 09:34:05;;;;;;;21.73;17.98;;;12.20;99.90;;;;;;4971258;28;20458;-75
2023/03/19 09:36:32;;;;;;;22.52;17.38;;;12.20;99.90;;;;;;4971037;28;20700;-75
2023/03/19 09:38:58;;;;;;;22.38;17.88;;;12.20;99.90;;;;;;4975045;28;20045;-75
2023/03/19 09:41:42;;;;;;;19.55;16.85;;;12.20;99.90;;;;;;4971633;28;20051;-75
2023/03/19 09:44:28;;;;;;;21.08;18.15;;;12.20;99.90;;;;;;4982663;28;20126;-75
2023/03/19 09:47:04;;;;;;;23.20;16.40;;;12.40;99.90;;;;;;4987220;28;20089;-75
2023/03/19 09:49:52;;;;;;;21.25;13.98;;;12.50;99.90;;;;;;4986492;28;20046;-75
2023/03/19 09:52:40;;;;;;;17.98;13.95;;;12.70;99.90;;;;;;4972347;28;20042;-75
2023/03/19 09:55:23;;;;;;;28.52;13.60;;;12.90;99.90;;;;;;4988732;28;20104;-75
2023/03/19 09:57:55;;;;;;;13.82;12.32;;;13.00;99.90;;;;;;4990564;28;20697;-75
2023/03/19 10:00:23;;;;;;;14.27;12.55;;;13.10;99.90;;;;;;4988191;28;20108;-75
2023/03/19 10:02:54;;;;;;;13.55;12.18;;;13.20;99.90;;;;;;4989042;28;20050;-75
2023/03/19 10:05:30;;;;;;;15.68;12.68;;;13.30;99.90;;;;;;4984645;28;20062;-75
2023/03/19 10:08:23;;;;;;;14.93;12.38;;;13.50;99.90;;;;;;4973753;28;20484;-76
2023/03/19 10:11:23;;;;;;;13.02;10.65;;;13.70;99.90;;;;;;4988643;28;20064;-75
2023/03/19 10:14:17;;;;;;;12.15;10.10;;;13.90;99.90;;;;;;4987580;28;20046;-75
2023/03/19 10:16:47;;;;;;;14.60;11.35;;;14.10;99.90;;;;;;4982328;28;20419;-75
2023/03/19 10:19:17;;;;;;;14.35;11.88;;;14.20;99.90;;;;;;4972024;28;20065;-75
2023/03/19 10:21:55;;;;;;;13.00;11.70;;;14.30;99.90;;;;;;4971691;28;20050;-75
2023/03/19 10:24:30;;;;;;;12.13;10.05;;;14.20;99.90;;;;;;4988824;28;20060;-75
2023/03/19 10:27:04;;;;;;;18.67;11.60;;;14.30;99.90;;;;;;4981166;28;20061;-74
2023/03/19 10:29:30;;;;;;;15.15;11.23;;;14.40;99.90;;;;;;4990679;28;20054;-76
2023/03/19 10:32:03;;;;;;;12.95;10.98;;;14.40;99.90;;;;;;4988240;28;20096;-76
2023/03/19 10:34:57;;;;;;;14.38;9.90;;;14.40;99.90;;;;;;4986623;28;20053;-75
2023/03/19 10:37:26;;;;;;;15.32;11.15;;;14.40;99.90;;;;;;4981167;28;20526;-75
2023/03/19 10:39:57;;;;;;;12.25;10.95;;;14.40;99.90;;;;;;4987631;28;20050;-76
2023/03/19 10:42:38;;;;;;;14.85;11.32;;;14.30;99.90;;;;;;4970894;28;20042;-76
2023/03/19 10:45:27;;;;;;;12.45;11.15;;;14.40;99.90;;;;;;4981562;28;20046;-76
2023/03/19 10:47:59;;;;;;;13.15;11.18;;;14.40;99.90;;;;;;4968863;28;20655;-76
2023/03/19 10:50:37;;;;;;;12.77;10.90;;;14.40;99.90;;;;;;4966313;28;20053;-76
2023/03/19 10:53:26;;;;;;;15.40;12.98;;;14.40;99.90;;;;;;4953276;28;20138;-76
2023/03/19 10:56:04;;;;;;;13.27;10.85;;;14.40;99.90;;;;;;4980304;28;20105;-76
2023/03/19 10:58:34;;;;;;;16.70;12.27;;;14.30;99.90;;;;;;4986221;28;20057;-76
2023/03/19 11:01:10;;;;;;;13.82;12.15;;;14.30;99.90;;;;;;4969480;28;20054;-75
2023/03/19 11:03:38;;;;;;;13.48;12.05;;;14.30;99.90;;;;;;4967535;28;20145;-74
2023/03/19 11:06:12;;;;;;;13.38;11.70;;;14.30;99.90;;;;;;4980355;28;20042;-73
2023/03/19 11:08:38;;;;;;;12.55;11.30;;;14.30;99.90;;;;;;4970844;28;20054;-73
2023/03/19 11:11:04;;;;;;;18.95;11.80;;;14.30;99.90;;;;;;4988369;28;20060;-73
2023/03/19 11:13:32;;;;;;;12.93;11.60;;;14.30;99.90;;;;;;4968424;28;20121;-73
2023/03/19 11:16:00;;;;;;;16.20;12.27;;;14.30;99.90;;;;;;4987214;28;20583;-73
2023/03/19 11:18:37;;;;;;;16.88;13.50;;;14.50;99.90;;;;;;4970619;28;20049;-74
2023/03/19 11:21:20;;;;;;;17.50;13.07;;;14.70;99.90;;;;;;4986942;28;20129;-74
2023/03/19 11:23:51;;;;;;;17.45;13.57;;;14.70;99.90;;;;;;4968697;28;20094;-74
2023/03/19 11:26:22;;;;;;;12.80;11.23;;;14.80;99.90;;;;;;4964089;28;20042;-74
2023/03/19 11:28:51;;;;;;;17.35;13.95;;;14.80;99.90;;;;;;4975921;28;20049;-74
2023/03/19 11:31:32;;;;;;;14.30;12.35;;;14.90;99.90;;;;;;4987873;28;20062;-73
2023/03/19 11:34:32;;;;;;;14.68;13.15;;;15.00;99.90;;;;;;4987835;28;20047;-74
2023/03/19 11:37:10;;;;;;;14.10;12.45;;;15.20;99.90;;;;;;4980966;28;20101;-74
2023/03/19 11:39:47;;;;;;;15.95;14.15;;;15.40;99.90;;;;;;4982425;28;20054;-74
2023/03/19 11:42:44;;;;;;;16.08;12.63;;;15.50;99.90;;;;;;4987669;28;20135;-74
2023/03/19 11:45:24;;;;;;;20.23;13.60;;;15.50;99.90;;;;;;4981438;28;20052;-74
2023/03/19 11:47:50;;;;;;;13.73;11.23;;;15.50;99.90;;;;;;4986161;28;20054;-74
2023/03/19 11:50:19;;;;;;;15.30;13.38;;;15.60;99.90;;;;;;4969205;28;20147;-74
2023/03/19 11:53:22;;;;;;;14.88;13.27;;;15.80;99.90;;;;;;4971155;28;20042;-74
2023/03/19 11:56:28;;;;;;;13.85;12.35;;;16.10;99.90;;;;;;4987818;28;20050;-74
2023/03/19 11:59:19;;;;;;;16.15;13.88;;;16.30;99.90;;;;;;4968413;28;20066;-74
2023/03/19 12:02:19;;;;;;;20.80;14.35;;;16.40;99.90;;;;;;4990372;28;20050;-74
2023/03/19 12:05:10;;;;;;;14.50;12.82;;;16.40;99.90;;;;;;4992085;28;20046;-74
2023/03/19 12:08:17;;;;;;;14.88;13.25;;;16.40;99.90;;;;;;4984178;28;20170;-74
2023/03/19 12:10:52;;;;;;;18.65;14.18;;;16.50;99.90;;;;;;4985885;28;20053;-74
2023/03/19 12:13:40;;;;;;;14.70;13.10;;;16.40;99.90;;;;;;4971528;28;20058;-75
2023/03/19 12:16:44;;;;;;;16.67;13.75;;;16.40;99.90;;;;;;4982624;28;20050;-74
2023/03/19 12:19:50;;;;;;;16.65;14.98;;;16.30;99.90;;;;;;4984033;28;20069;-74
2023/03/19 12:22:47;;;;;;;18.40;16.00;;;16.20;99.90;;;;;;4974100;28;20054;-74
2023/03/19 12:25:51;;;;;;;19.70;15.93;;;16.20;99.90;;;;;;4968523;28;20046;-74
2023/03/19 12:28:25;;;;;;;20.77;15.55;;;16.20;99.90;;;;;;4991151;28;20305;-75
2023/03/19 12:31:18;;;;;;;14.82;13.35;;;16.40;99.90;;;;;;4987767;28;20447;-74
2023/03/19 12:34:05;;;;;;;17.55;14.73;;;16.40;99.90;;;;;;4973394;28;20057;-75
2023/03/19 12:36:37;;;;;;;16.90;14.13;;;16.50;99.90;;;;;;4989656;28;20049;-74
2023/03/19 12:39:10;;;;;;;18.55;16.08;;;16.70;99.90;;;;;;4967115;28;20053;-74
2023/03/19 12:41:40;;;;;;;17.92;13.90;;;16.80;99.90;;;;;;4973280;28;20631;-74
2023/03/19 12:44:32;;;;;;;14.27;12.80;;;16.90;99.90;;;;;;4973345;28;20408;-74
2023/03/19 12:47:11;;;;;;;14.77;13.32;;;17.00;99.90;;;;;;4986400;28;20054;-74